• Join FlightAware (Why Join?)
  • Login
  • US Flag 
05:05AM EDT


 

Airport Tracker/Info


-or-


 

Live Flight TrackerFlight Track Log ✈ BJS339 ✈ 26-Dec-2013 ✈ MMUN / CUN - KFLL

Flight Track Log - Related Links

Times and Time Zones

All times are in EST time to prevent confusion due to time zone crossing. See the BJS339 flight status page for this flight to view local times or setup timezone preferences in your user account.

Time Position Orientation Groundspeed Altitude Reporting Facility
EST Latitude Longitude Course Direction KTS MPH feet Rate Location/Type
06:23PM 24.0594 -82.4439 45° Northeast 526 605 41,000  Level Miami Center
06:24PM 24.1769 -82.3172 45° Northeast 535 616 41,000  Level Miami Center
06:25PM 24.2831 -82.2100 43° Northeast 529 609 41,000  Level Miami Center
06:26PM 24.3933 -82.1056 41° Northeast 518 596 41,000 -60 Level Miami Center
06:27PM 24.4994 -81.9958 43° Northeast 513 590 40,900 -600 Descending Miami Center
06:28PM 24.6056 -81.8814 44° Northeast 513 590 39,800 -1,320 Descending Miami Center
06:29PM 24.7239 -81.7789 38° Northeast 520 598 38,300 -1,920 Descending Miami Center
06:30PM 24.8236 -81.6661 46° Northeast 520 598 36,000 -2,640 Descending Miami Center
06:31PM 24.9189 -81.5622 45° Northeast 503 579 33,100 -3,300 Descending Miami Center
06:32PM 25.0203 -81.4606 42° Northeast 487 560 29,400 -3,720 Descending Miami Center
06:33PM 25.1172 -81.3611 43° Northeast 487 560 25,700 -3,600 Descending Miami Center
06:34PM 25.2119 -81.2658 42° Northeast 475 547 22,200 -3,540 Descending Miami Center
06:35PM 25.2983 -81.1725 44° Northeast 449 517 18,700 -3,240 Descending Miami Center
06:36PM 25.3653 -81.1014 44° Northeast 406 467 16,100 -3,120 Descending Miami Center
06:36PM 25.3800 -81.0881 39° Northeast 425 489 15,600 -3,180 Descending Miami Center
06:37PM 25.4597 -81.0103 41° Northeast 398 458 12,600 -2,400 Descending Miami Center
06:38PM 25.5242 -80.9389 45° Northeast 354 407 10,900 -1,560 Descending Miami Center
06:38PM 25.5242 -80.9389 45° Northeast 302 348 11,000 -540 Climbing Miami Center
06:39PM 25.5719 -80.8783 49° Northeast 302 348 10,400 -720 Descending Miami Center
06:39PM 25.5719 -80.8761 90° East 248 285 10,300 -1,260 Descending Miami Center
06:40PM 25.6353 -80.8528 18° North 244 281 9,100 -840 Descending Miami Center
06:41PM 25.7042 -80.8550 358° North 235 270 8,700 -420 Descending Miami Center
06:41PM 25.7042 -80.8575 270° West 245 282 8,700 -1,200 Level Miami Center
06:42PM 25.7708 -80.8642 355° North 235 270 7,500 -1,320 Descending Miami Center
06:42PM 25.7789 -80.8667 344° North 248 285 7,400 -1,140 Descending Miami Center
06:43PM 25.8372 -80.8711 356° North 235 270 6,400 -1,080 Descending Miami Center
06:43PM 25.8372 -80.8733 270° West 233 268 6,400 -540 Level Miami Center
06:44PM 25.9022 -80.8686 North 235 270 5,900 -420 Descending Miami Center
06:44PM 25.9022 -80.8686 North 226 260 6,000 60 Climbing Miami Center
06:45PM 25.9606 -80.8683 360° North 233 268 6,000 -120 Level Miami Center
06:45PM 25.9650 -80.8639 42° Northeast 235 270 5,900  Descending Miami Center
06:46PM 26.0233 -80.8658 358° North 197 227 6,000  Climbing Miami Center
06:47PM 26.0764 -80.8350 28° Northeast 188 216 6,000  Level Miami Center
06:48PM 26.1050 -80.7875 56° Northeast 188 216 6,000  Level Miami Center
06:49PM 26.0897 -80.7339 108° East 185 213 6,000 -120 Level Miami Center
06:50PM 26.0828 -80.6733 97° East 193 222 5,800 -120 Descending Miami Center
06:51PM 26.0783 -80.6086 94° East 185 213 5,800  Level Miami Center
06:52PM 26.0794 -80.5578 89° East 175 201 5,800 -300 Level Miami Center
06:53PM 26.0789 -80.5022 91° East 179 206 5,300 -600 Descending Miami Center
06:54PM 26.0739 -80.4464 96° East 172 198 4,700 -780 Descending Miami Center
06:55PM 26.0775 -80.3889 86° East 169 194 3,700 -900 Descending Miami Center
06:56PM 26.0767 -80.3356 91° East 171 197 2,800 -840 Descending Miami Center
06:57PM 26.0736 -80.2822 94° East 160 184 2,000 -840 Descending Miami Center
06:58PM 26.0747 -80.2361 88° East 144 166 1,200 -780 Descending Miami Center
06:59PM 26.0756 -80.2014 88° East 117 135 500 -720 Descending Miami Center
07:01PM 26.0667 -80.1500 90° East  Level FlightAware Approximate